sensor_id;sensor_type;location;lat;lon;timestamp;P1;durP1;ratioP1;P2;durP2;ratioP2
85342;SDS011;75760;31.390;34.904;2024-02-28T00:02:09;35.83;;;20.27;;
85342;SDS011;75760;31.390;34.904;2024-02-28T00:04:35;36.95;;;18.90;;
85342;SDS011;75760;31.390;34.904;2024-02-28T00:07:00;37.23;;;20.90;;
85342;SDS011;75760;31.390;34.904;2024-02-28T00:09:26;36.00;;;21.10;;
85342;SDS011;75760;31.390;34.904;2024-02-28T00:11:51;35.83;;;19.97;;
85342;SDS011;75760;31.390;34.904;2024-02-28T00:14:17;36.63;;;19.73;;
85342;SDS011;75760;31.390;34.904;2024-02-28T00:16:43;38.47;;;20.13;;
85342;SDS011;75760;31.390;34.904;2024-02-28T00:19:10;38.28;;;20.67;;
85342;SDS011;75760;31.390;34.904;2024-02-28T00:21:39;43.50;;;24.25;;
85342;SDS011;75760;31.390;34.904;2024-02-28T00:24:06;38.42;;;21.92;;
85342;SDS011;75760;31.390;34.904;2024-02-28T00:26:32;39.58;;;21.75;;
85342;SDS011;75760;31.390;34.904;2024-02-28T00:28:57;43.77;;;23.10;;
85342;SDS011;75760;31.390;34.904;2024-02-28T00:31:23;38.47;;;21.27;;
85342;SDS011;75760;31.390;34.904;2024-02-28T00:33:49;38.20;;;20.80;;
85342;SDS011;75760;31.390;34.904;2024-02-28T00:36:14;32.57;;;20.30;;
85342;SDS011;75760;31.390;34.904;2024-02-28T00:38:40;40.45;;;21.25;;
85342;SDS011;75760;31.390;34.904;2024-02-28T00:41:06;39.28;;;23.00;;
85342;SDS011;75760;31.390;34.904;2024-02-28T00:43:32;38.57;;;22.50;;
85342;SDS011;75760;31.390;34.904;2024-02-28T00:45:57;36.05;;;20.60;;
85342;SDS011;75760;31.390;34.904;2024-02-28T00:48:24;36.17;;;17.40;;
85342;SDS011;75760;31.390;34.904;2024-02-28T00:50:50;34.30;;;18.27;;
85342;SDS011;75760;31.390;34.904;2024-02-28T00:53:16;34.30;;;17.70;;
85342;SDS011;75760;31.390;34.904;2024-02-28T00:55:42;35.22;;;18.98;;
85342;SDS011;75760;31.390;34.904;2024-02-28T00:58:08;35.00;;;18.87;;
85342;SDS011;75760;31.390;34.904;2024-02-28T01:00:34;36.13;;;19.63;;
85342;SDS011;75760;31.390;34.904;2024-02-28T01:03:00;31.23;;;18.25;;
85342;SDS011;75760;31.390;34.904;2024-02-28T01:05:28;38.03;;;21.20;;
85342;SDS011;75760;31.390;34.904;2024-02-28T01:07:55;36.03;;;21.33;;
85342;SDS011;75760;31.390;34.904;2024-02-28T01:10:20;31.83;;;18.35;;
85342;SDS011;75760;31.390;34.904;2024-02-28T01:12:46;36.50;;;19.57;;
85342;SDS011;75760;31.390;34.904;2024-02-28T01:15:12;33.47;;;19.40;;
85342;SDS011;75760;31.390;34.904;2024-02-28T01:17:38;32.20;;;17.92;;
85342;SDS011;75760;31.390;34.904;2024-02-28T01:20:04;38.55;;;19.88;;
85342;SDS011;75760;31.390;34.904;2024-02-28T01:22:32;33.53;;;18.43;;
85342;SDS011;75760;31.390;34.904;2024-02-28T01:24:58;32.17;;;17.90;;
85342;SDS011;75760;31.390;34.904;2024-02-28T01:27:24;30.90;;;16.88;;
85342;SDS011;75760;31.390;34.904;2024-02-28T01:29:49;27.50;;;16.33;;
85342;SDS011;75760;31.390;34.904;2024-02-28T01:32:15;30.73;;;16.27;;
85342;SDS011;75760;31.390;34.904;2024-02-28T01:34:40;33.20;;;16.03;;
85342;SDS011;75760;31.390;34.904;2024-02-28T01:37:06;30.30;;;15.33;;
85342;SDS011;75760;31.390;34.904;2024-02-28T01:39:31;28.05;;;14.88;;
85342;SDS011;75760;31.390;34.904;2024-02-28T01:41:57;28.77;;;14.60;;
85342;SDS011;75760;31.390;34.904;2024-02-28T01:44:23;25.27;;;14.53;;
85342;SDS011;75760;31.390;34.904;2024-02-28T01:46:48;25.93;;;14.20;;
85342;SDS011;75760;31.390;34.904;2024-02-28T01:49:14;29.35;;;14.73;;
85342;SDS011;75760;31.390;34.904;2024-02-28T01:51:42;28.92;;;15.60;;
85342;SDS011;75760;31.390;34.904;2024-02-28T01:54:09;26.92;;;15.05;;
85342;SDS011;75760;31.390;34.904;2024-02-28T01:56:36;28.30;;;15.40;;
85342;SDS011;75760;31.390;34.904;2024-02-28T01:59:03;35.45;;;16.70;;
85342;SDS011;75760;31.390;34.904;2024-02-28T02:01:29;27.88;;;13.95;;
85342;SDS011;75760;31.390;34.904;2024-02-28T02:03:54;25.57;;;12.77;;
85342;SDS011;75760;31.390;34.904;2024-02-28T02:06:20;24.85;;;13.68;;
85342;SDS011;75760;31.390;34.904;2024-02-28T02:08:47;29.17;;;14.20;;
85342;SDS011;75760;31.390;34.904;2024-02-28T02:11:17;28.33;;;14.32;;
85342;SDS011;75760;31.390;34.904;2024-02-28T02:13:51;28.52;;;14.18;;
85342;SDS011;75760;31.390;34.904;2024-02-28T02:16:18;24.03;;;12.73;;
85342;SDS011;75760;31.390;34.904;2024-02-28T02:18:47;30.00;;;13.38;;
85342;SDS011;75760;31.390;34.904;2024-02-28T02:21:13;32.38;;;12.55;;
85342;SDS011;75760;31.390;34.904;2024-02-28T02:23:42;27.90;;;13.18;;
85342;SDS011;75760;31.390;34.904;2024-02-28T02:26:08;26.87;;;11.40;;
85342;SDS011;75760;31.390;34.904;2024-02-28T02:28:34;17.25;;;9.20;;
85342;SDS011;75760;31.390;34.904;2024-02-28T02:30:59;20.13;;;7.77;;
85342;SDS011;75760;31.390;34.904;2024-02-28T02:33:25;13.38;;;7.65;;
85342;SDS011;75760;31.390;34.904;2024-02-28T02:35:54;14.90;;;7.20;;
85342;SDS011;75760;31.390;34.904;2024-02-28T02:38:19;15.65;;;7.47;;
85342;SDS011;75760;31.390;34.904;2024-02-28T02:40:49;11.80;;;6.32;;
85342;SDS011;75760;31.390;34.904;2024-02-28T02:43:17;13.70;;;6.77;;
85342;SDS011;75760;31.390;34.904;2024-02-28T02:45:43;18.63;;;6.38;;
85342;SDS011;75760;31.390;34.904;2024-02-28T02:48:09;16.17;;;6.53;;
85342;SDS011;75760;31.390;34.904;2024-02-28T02:50:35;13.70;;;7.13;;
85342;SDS011;75760;31.390;34.904;2024-02-28T02:53:01;11.80;;;6.83;;
85342;SDS011;75760;31.390;34.904;2024-02-28T02:55:28;13.25;;;6.40;;
85342;SDS011;75760;31.390;34.904;2024-02-28T02:57:54;13.02;;;6.38;;
85342;SDS011;75760;31.390;34.904;2024-02-28T03:00:20;15.73;;;6.53;;
85342;SDS011;75760;31.390;34.904;2024-02-28T03:02:46;16.87;;;6.83;;
85342;SDS011;75760;31.390;34.904;2024-02-28T03:05:12;18.80;;;10.80;;
85342;SDS011;75760;31.390;34.904;2024-02-28T03:07:37;35.37;;;21.10;;
85342;SDS011;75760;31.390;34.904;2024-02-28T03:10:03;55.13;;;32.78;;
85342;SDS011;75760;31.390;34.904;2024-02-28T03:12:29;42.20;;;25.50;;
85342;SDS011;75760;31.390;34.904;2024-02-28T03:14:55;39.73;;;22.63;;
85342;SDS011;75760;31.390;34.904;2024-02-28T03:17:20;29.43;;;17.50;;
85342;SDS011;75760;31.390;34.904;2024-02-28T03:19:46;40.10;;;23.23;;
85342;SDS011;75760;31.390;34.904;2024-02-28T03:22:12;44.08;;;25.05;;
85342;SDS011;75760;31.390;34.904;2024-02-28T03:24:37;58.43;;;31.97;;
85342;SDS011;75760;31.390;34.904;2024-02-28T03:27:03;70.07;;;35.92;;
85342;SDS011;75760;31.390;34.904;2024-02-28T03:29:29;78.30;;;41.50;;
85342;SDS011;75760;31.390;34.904;2024-02-28T03:31:55;79.03;;;42.58;;
85342;SDS011;75760;31.390;34.904;2024-02-28T03:34:22;86.25;;;45.38;;
85342;SDS011;75760;31.390;34.904;2024-02-28T03:36:47;58.93;;;32.43;;
85342;SDS011;75760;31.390;34.904;2024-02-28T03:39:13;53.72;;;30.67;;
85342;SDS011;75760;31.390;34.904;2024-02-28T03:41:38;34.63;;;19.40;;
85342;SDS011;75760;31.390;34.904;2024-02-28T03:44:04;32.73;;;18.07;;
85342;SDS011;75760;31.390;34.904;2024-02-28T03:46:30;45.28;;;22.48;;
85342;SDS011;75760;31.390;34.904;2024-02-28T03:48:56;49.25;;;27.08;;
85342;SDS011;75760;31.390;34.904;2024-02-28T03:51:22;59.63;;;31.07;;
85342;SDS011;75760;31.390;34.904;2024-02-28T03:53:48;62.72;;;29.98;;
85342;SDS011;75760;31.390;34.904;2024-02-28T03:56:20;62.73;;;31.40;;
85342;SDS011;75760;31.390;34.904;2024-02-28T03:58:55;69.45;;;33.95;;
85342;SDS011;75760;31.390;34.904;2024-02-28T04:01:21;75.63;;;38.40;;
85342;SDS011;75760;31.390;34.904;2024-02-28T04:03:46;70.70;;;36.33;;
85342;SDS011;75760;31.390;34.904;2024-02-28T04:06:12;72.88;;;38.88;;
85342;SDS011;75760;31.390;34.904;2024-02-28T04:08:38;75.03;;;38.67;;
85342;SDS011;75760;31.390;34.904;2024-02-28T04:11:05;79.60;;;40.67;;
85342;SDS011;75760;31.390;34.904;2024-02-28T04:13:31;76.47;;;40.33;;
85342;SDS011;75760;31.390;34.904;2024-02-28T04:15:56;48.28;;;26.55;;
85342;SDS011;75760;31.390;34.904;2024-02-28T04:18:22;43.60;;;22.87;;
85342;SDS011;75760;31.390;34.904;2024-02-28T04:20:47;30.25;;;15.40;;
85342;SDS011;75760;31.390;34.904;2024-02-28T04:23:13;24.37;;;12.50;;
85342;SDS011;75760;31.390;34.904;2024-02-28T04:25:39;26.90;;;11.43;;
85342;SDS011;75760;31.390;34.904;2024-02-28T04:28:06;21.37;;;10.43;;
85342;SDS011;75760;31.390;34.904;2024-02-28T04:30:33;18.48;;;8.25;;
85342;SDS011;75760;31.390;34.904;2024-02-28T04:32:59;17.65;;;8.13;;
85342;SDS011;75760;31.390;34.904;2024-02-28T04:35:25;15.13;;;7.60;;
85342;SDS011;75760;31.390;34.904;2024-02-28T04:37:50;21.33;;;8.32;;
85342;SDS011;75760;31.390;34.904;2024-02-28T04:40:16;11.80;;;6.63;;
85342;SDS011;75760;31.390;34.904;2024-02-28T04:42:42;12.95;;;7.05;;
85342;SDS011;75760;31.390;34.904;2024-02-28T04:45:10;11.57;;;6.37;;
85342;SDS011;75760;31.390;34.904;2024-02-28T04:47:36;15.10;;;6.65;;
85342;SDS011;75760;31.390;34.904;2024-02-28T04:50:02;12.02;;;6.82;;
85342;SDS011;75760;31.390;34.904;2024-02-28T04:52:31;13.57;;;6.68;;
85342;SDS011;75760;31.390;34.904;2024-02-28T04:54:57;13.97;;;5.60;;
85342;SDS011;75760;31.390;34.904;2024-02-28T04:57:23;11.38;;;5.10;;
85342;SDS011;75760;31.390;34.904;2024-02-28T04:59:49;12.48;;;5.53;;
85342;SDS011;75760;31.390;34.904;2024-02-28T05:02:15;13.20;;;5.33;;
85342;SDS011;75760;31.390;34.904;2024-02-28T05:04:41;12.88;;;5.15;;
85342;SDS011;75760;31.390;34.904;2024-02-28T05:07:07;12.45;;;5.95;;
85342;SDS011;75760;31.390;34.904;2024-02-28T05:09:33;10.00;;;4.40;;
85342;SDS011;75760;31.390;34.904;2024-02-28T05:11:59;16.55;;;4.65;;
85342;SDS011;75760;31.390;34.904;2024-02-28T05:14:24;11.17;;;4.90;;
85342;SDS011;75760;31.390;34.904;2024-02-28T05:16:50;14.52;;;4.75;;
85342;SDS011;75760;31.390;34.904;2024-02-28T05:19:16;10.97;;;4.50;;
85342;SDS011;75760;31.390;34.904;2024-02-28T05:21:43;9.05;;;4.75;;
85342;SDS011;75760;31.390;34.904;2024-02-28T05:24:09;12.82;;;5.03;;
85342;SDS011;75760;31.390;34.904;2024-02-28T05:26:35;9.83;;;4.70;;
85342;SDS011;75760;31.390;34.904;2024-02-28T05:29:02;7.05;;;4.25;;
85342;SDS011;75760;31.390;34.904;2024-02-28T05:31:29;7.78;;;4.00;;
85342;SDS011;75760;31.390;34.904;2024-02-28T05:33:57;8.80;;;4.22;;
85342;SDS011;75760;31.390;34.904;2024-02-28T05:36:23;10.70;;;4.75;;
85342;SDS011;75760;31.390;34.904;2024-02-28T05:38:50;8.80;;;4.60;;
85342;SDS011;75760;31.390;34.904;2024-02-28T05:41:17;11.00;;;4.50;;
85342;SDS011;75760;31.390;34.904;2024-02-28T05:43:43;11.27;;;5.35;;
85342;SDS011;75760;31.390;34.904;2024-02-28T05:46:09;10.20;;;4.32;;
85342;SDS011;75760;31.390;34.904;2024-02-28T05:48:35;12.23;;;4.70;;
85342;SDS011;75760;31.390;34.904;2024-02-28T05:51:01;14.13;;;4.78;;
85342;SDS011;75760;31.390;34.904;2024-02-28T05:53:28;8.73;;;4.60;;
85342;SDS011;75760;31.390;34.904;2024-02-28T05:55:57;12.15;;;4.60;;
85342;SDS011;75760;31.390;34.904;2024-02-28T05:58:23;9.27;;;4.20;;
85342;SDS011;75760;31.390;34.904;2024-02-28T06:00:50;8.07;;;4.25;;
85342;SDS011;75760;31.390;34.904;2024-02-28T06:03:16;13.18;;;4.35;;
85342;SDS011;75760;31.390;34.904;2024-02-28T06:05:42;13.85;;;4.20;;
85342;SDS011;75760;31.390;34.904;2024-02-28T06:08:07;12.83;;;4.70;;
85342;SDS011;75760;31.390;34.904;2024-02-28T06:10:33;13.32;;;4.70;;
85342;SDS011;75760;31.390;34.904;2024-02-28T06:12:59;10.37;;;4.53;;
85342;SDS011;75760;31.390;34.904;2024-02-28T06:15:25;13.32;;;4.40;;
85342;SDS011;75760;31.390;34.904;2024-02-28T06:17:51;10.57;;;4.20;;
85342;SDS011;75760;31.390;34.904;2024-02-28T06:20:17;9.30;;;4.57;;
85342;SDS011;75760;31.390;34.904;2024-02-28T06:22:42;12.50;;;4.10;;
85342;SDS011;75760;31.390;34.904;2024-02-28T06:25:08;13.00;;;5.00;;
85342;SDS011;75760;31.390;34.904;2024-02-28T06:27:43;13.23;;;3.95;;
85342;SDS011;75760;31.390;34.904;2024-02-28T06:30:09;11.82;;;4.00;;
85342;SDS011;75760;31.390;34.904;2024-02-28T06:32:35;8.47;;;3.70;;
85342;SDS011;75760;31.390;34.904;2024-02-28T06:35:00;7.32;;;3.45;;
85342;SDS011;75760;31.390;34.904;2024-02-28T06:37:26;10.87;;;3.83;;
85342;SDS011;75760;31.390;34.904;2024-02-28T06:39:53;9.88;;;3.50;;
85342;SDS011;75760;31.390;34.904;2024-02-28T06:42:18;6.90;;;4.13;;
85342;SDS011;75760;31.390;34.904;2024-02-28T06:44:44;8.87;;;4.80;;
85342;SDS011;75760;31.390;34.904;2024-02-28T06:47:09;9.93;;;4.67;;
85342;SDS011;75760;31.390;34.904;2024-02-28T06:49:35;9.40;;;4.63;;
85342;SDS011;75760;31.390;34.904;2024-02-28T06:52:00;10.70;;;4.67;;
85342;SDS011;75760;31.390;34.904;2024-02-28T06:54:27;8.73;;;3.60;;
85342;SDS011;75760;31.390;34.904;2024-02-28T06:56:53;9.75;;;3.78;;
85342;SDS011;75760;31.390;34.904;2024-02-28T06:59:18;8.47;;;3.57;;
85342;SDS011;75760;31.390;34.904;2024-02-28T07:01:44;9.95;;;3.55;;
85342;SDS011;75760;31.390;34.904;2024-02-28T07:04:10;13.83;;;4.17;;
85342;SDS011;75760;31.390;34.904;2024-02-28T07:06:35;13.03;;;3.90;;
85342;SDS011;75760;31.390;34.904;2024-02-28T07:09:01;9.37;;;3.70;;
85342;SDS011;75760;31.390;34.904;2024-02-28T07:11:26;12.77;;;3.75;;
85342;SDS011;75760;31.390;34.904;2024-02-28T07:13:52;15.07;;;3.80;;
85342;SDS011;75760;31.390;34.904;2024-02-28T07:16:18;8.40;;;3.17;;
85342;SDS011;75760;31.390;34.904;2024-02-28T07:18:43;8.68;;;2.88;;
85342;SDS011;75760;31.390;34.904;2024-02-28T07:21:09;8.03;;;3.03;;
85342;SDS011;75760;31.390;34.904;2024-02-28T07:23:34;8.93;;;3.03;;
85342;SDS011;75760;31.390;34.904;2024-02-28T07:26:00;11.77;;;3.30;;
85342;SDS011;75760;31.390;34.904;2024-02-28T07:28:26;11.00;;;3.17;;
85342;SDS011;75760;31.390;34.904;2024-02-28T07:30:51;9.23;;;3.70;;
85342;SDS011;75760;31.390;34.904;2024-02-28T07:33:17;14.20;;;3.57;;
85342;SDS011;75760;31.390;34.904;2024-02-28T07:35:46;8.50;;;3.05;;
85342;SDS011;75760;31.390;34.904;2024-02-28T07:38:12;7.90;;;2.60;;
85342;SDS011;75760;31.390;34.904;2024-02-28T07:40:38;8.88;;;3.08;;
85342;SDS011;75760;31.390;34.904;2024-02-28T07:43:03;13.02;;;2.60;;
85342;SDS011;75760;31.390;34.904;2024-02-28T07:45:29;11.80;;;3.50;;
85342;SDS011;75760;31.390;34.904;2024-02-28T07:47:55;6.00;;;2.80;;
85342;SDS011;75760;31.390;34.904;2024-02-28T07:50:20;9.73;;;2.87;;
85342;SDS011;75760;31.390;34.904;2024-02-28T07:52:46;5.95;;;3.05;;
85342;SDS011;75760;31.390;34.904;2024-02-28T07:55:11;14.73;;;6.60;;
85342;SDS011;75760;31.390;34.904;2024-02-28T07:57:37;21.47;;;8.97;;
85342;SDS011;75760;31.390;34.904;2024-02-28T08:00:03;16.48;;;8.38;;
85342;SDS011;75760;31.390;34.904;2024-02-28T08:02:29;16.25;;;8.32;;
85342;SDS011;75760;31.390;34.904;2024-02-28T08:04:56;17.40;;;7.50;;
85342;SDS011;75760;31.390;34.904;2024-02-28T08:07:22;20.35;;;10.07;;
85342;SDS011;75760;31.390;34.904;2024-02-28T08:09:47;22.87;;;10.83;;
85342;SDS011;75760;31.390;34.904;2024-02-28T08:12:13;21.20;;;11.80;;
85342;SDS011;75760;31.390;34.904;2024-02-28T08:14:38;22.03;;;11.03;;
85342;SDS011;75760;31.390;34.904;2024-02-28T08:17:04;25.00;;;11.90;;
85342;SDS011;75760;31.390;34.904;2024-02-28T08:19:30;18.60;;;10.33;;
85342;SDS011;75760;31.390;34.904;2024-02-28T08:21:55;18.70;;;10.50;;
85342;SDS011;75760;31.390;34.904;2024-02-28T08:24:21;19.87;;;10.43;;
85342;SDS011;75760;31.390;34.904;2024-02-28T08:26:46;21.50;;;9.17;;
85342;SDS011;75760;31.390;34.904;2024-02-28T08:29:12;16.77;;;8.82;;
85342;SDS011;75760;31.390;34.904;2024-02-28T08:31:41;16.67;;;8.80;;
85342;SDS011;75760;31.390;34.904;2024-02-28T08:34:08;12.73;;;6.15;;
85342;SDS011;75760;31.390;34.904;2024-02-28T08:36:34;6.95;;;4.03;;
85342;SDS011;75760;31.390;34.904;2024-02-28T08:39:00;10.53;;;3.80;;
85342;SDS011;75760;31.390;34.904;2024-02-28T08:41:25;9.00;;;2.90;;
85342;SDS011;75760;31.390;34.904;2024-02-28T08:43:51;7.07;;;2.40;;
85342;SDS011;75760;31.390;34.904;2024-02-28T08:46:16;11.05;;;2.60;;
85342;SDS011;75760;31.390;34.904;2024-02-28T08:48:42;5.03;;;1.87;;
85342;SDS011;75760;31.390;34.904;2024-02-28T08:51:08;6.60;;;2.08;;
85342;SDS011;75760;31.390;34.904;2024-02-28T08:53:33;8.30;;;2.37;;
85342;SDS011;75760;31.390;34.904;2024-02-28T08:55:59;7.07;;;2.38;;
85342;SDS011;75760;31.390;34.904;2024-02-28T08:58:24;6.43;;;2.60;;
85342;SDS011;75760;31.390;34.904;2024-02-28T09:00:50;11.40;;;2.25;;
85342;SDS011;75760;31.390;34.904;2024-02-28T09:03:16;5.63;;;1.90;;
85342;SDS011;75760;31.390;34.904;2024-02-28T09:05:41;6.40;;;2.50;;
85342;SDS011;75760;31.390;34.904;2024-02-28T09:08:07;7.18;;;2.22;;
85342;SDS011;75760;31.390;34.904;2024-02-28T09:10:33;6.03;;;2.20;;
85342;SDS011;75760;31.390;34.904;2024-02-28T09:12:59;4.78;;;2.00;;
85342;SDS011;75760;31.390;34.904;2024-02-28T09:15:25;6.25;;;2.17;;
85342;SDS011;75760;31.390;34.904;2024-02-28T09:17:51;6.00;;;2.80;;
85342;SDS011;75760;31.390;34.904;2024-02-28T09:20:17;5.00;;;2.50;;
85342;SDS011;75760;31.390;34.904;2024-02-28T09:22:42;8.52;;;2.30;;
85342;SDS011;75760;31.390;34.904;2024-02-28T09:25:08;8.47;;;2.10;;
85342;SDS011;75760;31.390;34.904;2024-02-28T09:27:34;5.28;;;2.20;;
85342;SDS011;75760;31.390;34.904;2024-02-28T09:30:01;7.90;;;2.30;;
85342;SDS011;75760;31.390;34.904;2024-02-28T09:32:27;4.82;;;2.03;;
85342;SDS011;75760;31.390;34.904;2024-02-28T09:34:53;6.93;;;2.07;;
85342;SDS011;75760;31.390;34.904;2024-02-28T09:37:18;8.17;;;2.57;;
85342;SDS011;75760;31.390;34.904;2024-02-28T09:39:46;6.70;;;2.20;;
85342;SDS011;75760;31.390;34.904;2024-02-28T09:42:11;7.68;;;2.50;;
85342;SDS011;75760;31.390;34.904;2024-02-28T09:44:39;4.90;;;2.20;;
85342;SDS011;75760;31.390;34.904;2024-02-28T09:47:05;10.02;;;2.30;;
85342;SDS011;75760;31.390;34.904;2024-02-28T09:49:31;5.68;;;2.08;;
85342;SDS011;75760;31.390;34.904;2024-02-28T09:51:59;5.33;;;2.17;;
85342;SDS011;75760;31.390;34.904;2024-02-28T09:54:26;6.57;;;2.08;;
85342;SDS011;75760;31.390;34.904;2024-02-28T09:56:51;6.55;;;1.75;;
85342;SDS011;75760;31.390;34.904;2024-02-28T09:59:19;8.57;;;2.10;;
85342;SDS011;75760;31.390;34.904;2024-02-28T10:01:52;10.55;;;2.17;;
85342;SDS011;75760;31.390;34.904;2024-02-28T10:04:20;6.53;;;1.98;;
85342;SDS011;75760;31.390;34.904;2024-02-28T10:06:46;4.13;;;2.10;;
85342;SDS011;75760;31.390;34.904;2024-02-28T10:09:15;7.38;;;2.30;;
85342;SDS011;75760;31.390;34.904;2024-02-28T10:11:41;6.30;;;2.15;;
85342;SDS011;75760;31.390;34.904;2024-02-28T10:14:08;9.98;;;2.47;;
85342;SDS011;75760;31.390;34.904;2024-02-28T10:16:34;7.93;;;2.67;;
85342;SDS011;75760;31.390;34.904;2024-02-28T10:19:00;8.13;;;2.60;;
85342;SDS011;75760;31.390;34.904;2024-02-28T10:21:25;9.00;;;2.17;;
85342;SDS011;75760;31.390;34.904;2024-02-28T10:23:51;9.52;;;2.20;;
85342;SDS011;75760;31.390;34.904;2024-02-28T10:26:17;9.87;;;2.40;;
85342;SDS011;75760;31.390;34.904;2024-02-28T10:28:42;4.88;;;2.10;;
85342;SDS011;75760;31.390;34.904;2024-02-28T10:31:11;5.78;;;2.08;;
85342;SDS011;75760;31.390;34.904;2024-02-28T10:33:37;6.73;;;2.30;;
85342;SDS011;75760;31.390;34.904;2024-02-28T10:36:03;5.93;;;1.95;;
85342;SDS011;75760;31.390;34.904;2024-02-28T10:38:30;9.00;;;2.13;;
85342;SDS011;75760;31.390;34.904;2024-02-28T10:40:59;7.07;;;2.23;;
85342;SDS011;75760;31.390;34.904;2024-02-28T10:43:27;10.48;;;2.35;;
85342;SDS011;75760;31.390;34.904;2024-02-28T10:45:55;8.50;;;2.20;;
85342;SDS011;75760;31.390;34.904;2024-02-28T10:48:25;6.40;;;1.90;;
85342;SDS011;75760;31.390;34.904;2024-02-28T10:50:51;6.68;;;2.40;;
85342;SDS011;75760;31.390;34.904;2024-02-28T10:53:21;10.60;;;2.43;;
85342;SDS011;75760;31.390;34.904;2024-02-28T10:55:51;10.10;;;2.25;;
85342;SDS011;75760;31.390;34.904;2024-02-28T10:58:21;4.70;;;2.20;;
85342;SDS011;75760;31.390;34.904;2024-02-28T11:00:49;8.23;;;2.30;;
85342;SDS011;75760;31.390;34.904;2024-02-28T11:03:16;5.60;;;2.50;;
85342;SDS011;75760;31.390;34.904;2024-02-28T11:05:44;7.53;;;2.17;;
85342;SDS011;75760;31.390;34.904;2024-02-28T11:08:30;6.03;;;2.10;;
85342;SDS011;75760;31.390;34.904;2024-02-28T11:11:02;5.53;;;1.80;;
85342;SDS011;75760;31.390;34.904;2024-02-28T11:13:33;6.43;;;2.35;;
85342;SDS011;75760;31.390;34.904;2024-02-28T11:16:09;6.03;;;2.30;;
85342;SDS011;75760;31.390;34.904;2024-02-28T11:18:35;4.97;;;2.23;;
85342;SDS011;75760;31.390;34.904;2024-02-28T11:21:01;5.82;;;2.92;;
85342;SDS011;75760;31.390;34.904;2024-02-28T11:23:35;9.00;;;2.03;;
85342;SDS011;75760;31.390;34.904;2024-02-28T11:26:02;5.55;;;2.10;;
85342;SDS011;75760;31.390;34.904;2024-02-28T11:28:28;7.20;;;2.03;;
85342;SDS011;75760;31.390;34.904;2024-02-28T11:30:54;8.07;;;2.10;;
85342;SDS011;75760;31.390;34.904;2024-02-28T11:33:21;11.38;;;2.40;;
85342;SDS011;75760;31.390;34.904;2024-02-28T11:35:56;6.23;;;2.20;;
85342;SDS011;75760;31.390;34.904;2024-02-28T11:38:25;5.57;;;1.90;;
85342;SDS011;75760;31.390;34.904;2024-02-28T11:40:52;6.80;;;2.10;;
85342;SDS011;75760;31.390;34.904;2024-02-28T11:43:19;6.45;;;2.00;;
85342;SDS011;75760;31.390;34.904;2024-02-28T11:45:44;6.63;;;2.10;;
85342;SDS011;75760;31.390;34.904;2024-02-28T11:48:14;5.35;;;2.10;;
85342;SDS011;75760;31.390;34.904;2024-02-28T11:50:40;5.68;;;2.10;;
85342;SDS011;75760;31.390;34.904;2024-02-28T11:53:06;6.47;;;1.97;;
85342;SDS011;75760;31.390;34.904;2024-02-28T11:55:32;8.57;;;2.40;;
85342;SDS011;75760;31.390;34.904;2024-02-28T11:57:58;5.13;;;1.98;;
85342;SDS011;75760;31.390;34.904;2024-02-28T12:00:24;5.80;;;2.33;;
85342;SDS011;75760;31.390;34.904;2024-02-28T12:02:49;5.00;;;2.10;;
85342;SDS011;75760;31.390;34.904;2024-02-28T12:05:15;5.07;;;1.77;;
85342;SDS011;75760;31.390;34.904;2024-02-28T12:07:41;5.80;;;1.85;;
85342;SDS011;75760;31.390;34.904;2024-02-28T12:10:08;10.03;;;2.40;;
85342;SDS011;75760;31.390;34.904;2024-02-28T12:12:34;6.28;;;2.20;;
85342;SDS011;75760;31.390;34.904;2024-02-28T12:15:00;7.85;;;2.28;;
85342;SDS011;75760;31.390;34.904;2024-02-28T12:17:30;11.32;;;2.33;;
85342;SDS011;75760;31.390;34.904;2024-02-28T12:19:58;6.43;;;2.28;;
85342;SDS011;75760;31.390;34.904;2024-02-28T12:22:25;6.13;;;2.20;;
85342;SDS011;75760;31.390;34.904;2024-02-28T12:24:50;6.80;;;2.53;;
85342;SDS011;75760;31.390;34.904;2024-02-28T12:27:16;5.73;;;2.27;;
85342;SDS011;75760;31.390;34.904;2024-02-28T12:29:42;5.85;;;2.40;;
85342;SDS011;75760;31.390;34.904;2024-02-28T12:32:08;8.23;;;2.50;;
85342;SDS011;75760;31.390;34.904;2024-02-28T12:34:34;7.90;;;2.28;;
85342;SDS011;75760;31.390;34.904;2024-02-28T12:37:00;8.30;;;2.43;;
85342;SDS011;75760;31.390;34.904;2024-02-28T12:39:26;5.70;;;2.00;;
85342;SDS011;75760;31.390;34.904;2024-02-28T12:41:52;7.70;;;2.72;;
85342;SDS011;75760;31.390;34.904;2024-02-28T12:44:17;4.07;;;2.03;;
85342;SDS011;75760;31.390;34.904;2024-02-28T12:46:43;4.65;;;1.98;;
85342;SDS011;75760;31.390;34.904;2024-02-28T12:49:09;10.10;;;2.73;;
85342;SDS011;75760;31.390;34.904;2024-02-28T12:51:41;8.43;;;2.13;;
85342;SDS011;75760;31.390;34.904;2024-02-28T12:54:11;10.63;;;2.08;;
85342;SDS011;75760;31.390;34.904;2024-02-28T12:56:39;5.23;;;1.90;;
85342;SDS011;75760;31.390;34.904;2024-02-28T12:59:08;5.80;;;2.30;;
85342;SDS011;75760;31.390;34.904;2024-02-28T13:01:34;6.38;;;1.98;;
85342;SDS011;75760;31.390;34.904;2024-02-28T13:04:00;6.88;;;1.80;;
85342;SDS011;75760;31.390;34.904;2024-02-28T13:06:26;5.30;;;1.80;;
85342;SDS011;75760;31.390;34.904;2024-02-28T13:08:52;5.47;;;1.77;;
85342;SDS011;75760;31.390;34.904;2024-02-28T13:11:18;5.80;;;1.73;;
85342;SDS011;75760;31.390;34.904;2024-02-28T13:13:48;5.70;;;1.90;;
85342;SDS011;75760;31.390;34.904;2024-02-28T13:16:17;11.23;;;2.13;;
85342;SDS011;75760;31.390;34.904;2024-02-28T13:18:43;6.32;;;2.08;;
85342;SDS011;75760;31.390;34.904;2024-02-28T13:21:10;5.38;;;1.80;;
85342;SDS011;75760;31.390;34.904;2024-02-28T13:23:36;14.85;;;2.30;;
85342;SDS011;75760;31.390;34.904;2024-02-28T13:26:03;4.87;;;2.03;;
85342;SDS011;75760;31.390;34.904;2024-02-28T13:28:32;9.82;;;2.03;;
85342;SDS011;75760;31.390;34.904;2024-02-28T13:31:01;7.63;;;2.03;;
85342;SDS011;75760;31.390;34.904;2024-02-28T13:33:29;11.00;;;2.47;;
85342;SDS011;75760;31.390;34.904;2024-02-28T13:35:54;5.60;;;1.90;;
85342;SDS011;75760;31.390;34.904;2024-02-28T13:38:20;9.13;;;2.55;;
85342;SDS011;75760;31.390;34.904;2024-02-28T13:40:47;3.97;;;1.73;;
85342;SDS011;75760;31.390;34.904;2024-02-28T13:43:13;3.50;;;1.87;;
85342;SDS011;75760;31.390;34.904;2024-02-28T13:45:38;7.57;;;2.25;;
85342;SDS011;75760;31.390;34.904;2024-02-28T13:48:16;6.95;;;2.00;;
85342;SDS011;75760;31.390;34.904;2024-02-28T13:50:47;6.05;;;1.92;;
85342;SDS011;75760;31.390;34.904;2024-02-28T13:53:14;9.73;;;2.30;;
85342;SDS011;75760;31.390;34.904;2024-02-28T13:55:43;5.72;;;2.20;;
85342;SDS011;75760;31.390;34.904;2024-02-28T13:58:10;9.85;;;2.13;;
85342;SDS011;75760;31.390;34.904;2024-02-28T14:00:37;4.78;;;1.77;;
85342;SDS011;75760;31.390;34.904;2024-02-28T14:03:03;4.30;;;2.00;;
85342;SDS011;75760;31.390;34.904;2024-02-28T14:05:30;6.33;;;1.73;;
85342;SDS011;75760;31.390;34.904;2024-02-28T14:07:55;9.10;;;2.40;;
85342;SDS011;75760;31.390;34.904;2024-02-28T14:10:24;8.18;;;2.13;;
85342;SDS011;75760;31.390;34.904;2024-02-28T14:12:50;8.93;;;2.40;;
85342;SDS011;75760;31.390;34.904;2024-02-28T14:15:22;7.87;;;2.90;;
85342;SDS011;75760;31.390;34.904;2024-02-28T14:17:47;5.10;;;2.08;;
85342;SDS011;75760;31.390;34.904;2024-02-28T14:20:13;6.65;;;2.42;;